Terminal Aerodrome Forecast
Issued by NWS Jackson, MS

Home | Current Version | Previous Version | Text Only | Print | Product List | Glossary On
Versions: 1 2 3 4 5 6 7 8 9 10 11 12 13 14 15 16 17
000
FTUS44 KJAN 171129
TAFMEI
TAF
KMEI 171129Z 1712/1812 19005KT P6SM OVC020
     FM171600 20008KT P6SM BKN020 OVC030
     FM172100 21010KT P6SM OVC040
     FM180000 18003KT P6SM SCT025 OVC100
     FM180900 00000KT 4SM BR OVC007=

USA.gov is the U.S. government's official web portal to all federal, state and local government web resources and services.